This is the latest recevied weather packets stored in our database for station/object KB4RFE. If no packets are shown the sender has not sent any weather packets the latest 10 day(s).
| Time | Temp. | Humidity | Pressure | Rain* | Wind** | Luminosity | Snow |
|---|---|---|---|---|---|---|---|
| 1788361475 | 32.22° C | 69% | 1021.9 hPa | 0 mm | - | 640 W/m² | - |
| 1788361174 | 32.22° C | 69% | 1021.8 hPa | 0 mm | - | 626 W/m² | - |
| 1788360870 | 32.78° C | 66% | 1021.8 hPa | 0 mm | - | 612 W/m² | - |
| 1788360570 | 32.78° C | 64% | 1021.9 hPa | 0 mm | - | 603 W/m² | - |
| 1788360266 | 32.22° C | 67% | 1021.8 hPa | 0 mm | - | 595 W/m² | - |
| 1788359966 | 31.67° C | 70% | 1021.8 hPa | 0 mm | - | 575 W/m² | - |
| 1788359661 | 31.11° C | 74% | 1021.8 hPa | 0 mm | - | 562 W/m² | - |
| 1788359356 | 30.56° C | 74% | 1021.8 hPa | 0 mm | - | 544 W/m² | - |
| 1788359052 | 30.56° C | 75% | 1021.7 hPa | 0 mm | - | 526 W/m² | - |
| 1788358748 | 30.56° C | 73% | 1021.7 hPa | 0 mm | - | 512 W/m² | - |
| 1788358443 | 30.56° C | 75% | 1021.7 hPa | 0 mm | - | 494 W/m² | - |
| 1788358142 | 30° C | 77% | 1021.6 hPa | 0 mm | - | 475 W/m² | - |
| 1788357838 | 30° C | 78% | 1021.6 hPa | 0 mm | - | 458 W/m² | - |
| 1788357538 | 29.44° C | 80% | 1021.7 hPa | 0 mm | - | 460 W/m² | - |
| 1788357233 | 28.89° C | 82% | 1021.5 hPa | 0 mm | - | 425 W/m² | - |
| 1788356932 | 28.89° C | 84% | 1021.3 hPa | 0 mm | - | 340 W/m² | - |
| 1788356628 | 28.33° C | 88% | 1021.6 hPa | 0 mm | - | 225 W/m² | - |
| 1788356323 | 27.78° C | 88% | 1021.6 hPa | 0 mm | - | 183 W/m² | - |
| 1788356023 | 27.78° C | 89% | 1021.6 hPa | 0 mm | - | 110 W/m² | - |
| 1788355718 | 27.78° C | 90% | 1021.6 hPa | 0 mm | - | 233 W/m² | - |
| 1788355413 | 27.22° C | 93% | 1021.7 hPa | 0 mm | - | 222 W/m² | - |
| 1788355109 | 27.22° C | 93% | 1021.5 hPa | 0 mm | - | 124 W/m² | - |
| 1788354806 | 26.67° C | 96% | 1021.5 hPa | 0 mm | - | 64 W/m² | - |
| 1788354504 | 26.67° C | 97% | 1021.6 hPa | 0 mm | - | 62 W/m² | - |
| 1788354201 | 26.67° C | 98% | 1021.6 hPa | 0 mm | - | 59 W/m² | - |
* Rain latest hour (hover to see other rain measurements)
** Current wind speed in m/s (hover to see current wind gust speed)